Historyczne dane pomiarowe

Dodano dane terminowe – wersja testowa.

Dane z okresu 1951-2019

Wersja bazy: 1.34 [2019-03-16, lista zmian], aktualizacja planowana na 2019-04-15

Dane meteo z obszaru Polski uzyskane na podstawie danych udostępnionych przez Instytut Meteorologii i Gospodarki Wodnej – Państwowy Instytut Badawczy.

 

Wybierz Datę:    

       

TemperaturaWilgotnośćWiatrCiśnienieOpadyŚniegCzas trwania zjawisk
 Stacja t tx tn tng RH VA  wxwx mslp ppp RRR   cm mm wxwxwxwxwxwxwx
1987-08-14 14.2 20.0 10.0 8.8 84.3- 6.0 2.7---- 0.0------------
1987-08-13 14.9 20.0 10.4 8.3 83.3- 5.3 5.0---- 10.8------------
1987-08-12 13.4 17.4 9.7 8.2 82.0- 3.7 6.0---- 0.2------------
1987-08-11 13.5 16.1 10.0 8.1 83.3- 4.3 4.3---- 2.8------------
1987-08-10 13.7 16.8 12.0 11.7 95.5- 4.7 6.3---- 5.0------------
1987-08-09 15.8 21.4 9.5 7.6 78.5- 3.7 1.3---- 8.9------------
1987-08-08 14.3 21.8 6.0 3.4 73.5- 1.7 4.0---- 0.0------------
1987-08-07 13.7 18.0 9.5 7.6 74.5- 1.7 4.0---- 0.0------------
1987-08-06 13.3 15.7 9.8 8.1 90.5- 5.3 4.0---- 4.9------------
1987-08-05 12.4 15.4 8.8 6.6 86.5- 4.0 6.0---- 0.4------------
1987-08-04 13.1 17.3 10.0 8.1 84.0- 3.3 2.3---- 1.2------------
1987-08-03 11.3 13.0 8.4 10.9 83.5- 6.0 0.0---- 9.9------------
1987-08-02 12.2 19.5 8.5 7.4 83.3- 2.3 1.3---- 9.8------------
1987-08-01 15.2 18.5 13.0 12.9 87.0- 4.7 6.7---- 5.8------------
1987-07-31 15.7 17.8 14.3 13.1 82.8- 6.0 4.3---- 5.8------------
1987-07-30 15.6 19.7 9.1 8.2 80.0- 4.3 0.0---- 0.0------------
1987-07-29 14.6 16.6 8.3 11.4 79.3- 1.3 5.3---- 8.3------------
1987-07-28 15.6 20.2 12.2 7.8 82.8- 1.3 6.0---- 0.7------------
1987-07-27 13.0 16.3 8.2 5.6 79.3- 3.0 6.7---- 0.0------------
1987-07-26 14.1 18.8 8.2 5.6 71.5- 2.0 3.0---- 0.0------------
1987-07-25 16.4 19.0 13.3 11.0 80.0- 4.7 3.7---- 0.8------------
1987-07-24 18.7 24.9 14.2 13.6 85.8- 2.0 5.0---- 0.0------------
1987-07-23 18.0 24.5 14.7 15.1 90.3- 3.7 2.0---- 0.0------------
1987-07-22 18.3 25.3 13.0 12.8 88.5- 3.0 0.7---- 0.0------------
1987-07-21 18.1 25.2 10.5 10.5 86.3- 1.0 3.3---- 0.0------------
1987-07-20 15.7 17.2 10.1 7.5 96.5- 6.0 0.0---- 12.7------------
1987-07-19 16.5 17.6 13.0 7.4 90.3- 6.0 2.0---- 11.6------------
1987-07-18 18.1 22.2 11.6 9.4 82.0- 2.3 3.7---- 0.0------------
1987-07-17 17.9 23.6 10.7 9.7 78.3- 2.0 2.7---- 0.0------------
1987-07-16 16.9 23.0 9.0 10.9 81.5- 3.7 0.0---- 0.0------------
1987-07-15 15.2 20.4 9.8 8.3 79.0- 1.7 2.0---- 0.0------------
1987-07-14 14.7 20.2 9.0 9.3 74.0- 5.3 2.0---- 0.0------------
1987-07-13 15.8 19.0 11.0 8.1 78.5- 4.3 6.3---- 0.0------------
1987-07-12 17.3 20.5 10.4 11.5 90.3- 3.0 5.0---- 5.6------------
1987-07-11 13.0 16.0 10.0 6.1 89.5- 6.0 0.0---- 5.4------------
1987-07-10 15.5 19.0 9.8 7.2 74.5- 1.0 6.0---- 0.0------------
1987-07-09 17.1 21.5 12.4 8.3 77.8- 2.3 6.0---- 1.5------------
1987-07-08 20.6 29.4 13.5 9.0 72.5- 2.7 2.7---- 5.6------------
1987-07-07 19.1 27.7 10.5 6.8 69.8- 0.7 4.3---- 0.0------------
1987-07-06 17.7 26.3 6.8 3.2 70.0- 0.7 3.0---- 0.0------------
1987-07-05 16.0 21.1 9.6 4.5 73.8- 1.3 3.7---- 0.0------------
1987-07-04 14.8 19.7 10.7 8.0 79.3- 3.7 1.3---- 0.0------------
1987-07-03 15.6 21.0 8.5 3.9 76.0- 0.3 2.0---- 0.3------------
1987-07-02 17.6 27.3 11.2 6.4 72.5- 1.7 4.0---- 0.0------------
1987-07-01 20.7 27.3 17.6 15.8 85.5- 4.3 4.7---- 0.0------------
1987-06-30 22.8 27.7 16.2 13.1 80.3- 3.3 1.3---- 0.0------------
1987-06-29 17.1 23.1 10.0 5.8 82.5- 5.3 2.0---- 0.0------------
1987-06-28 14.3 19.7 11.2 8.1 81.0- 3.3 4.3---- 1.3------------
1987-06-27 14.7 21.2 6.7 10.7 72.3- 4.0 4.3---- 1.9------------
1987-06-26 15.1 21.1 6.5 7.1 82.3- 4.3 2.0---- 0.0------------
1987-06-25 14.0 18.0 9.7 7.1 73.3- 3.3 5.0---- 0.0------------
1987-06-24 14.7 18.7 10.5 7.8 80.0- 5.3 2.7---- 1.0------------
1987-06-23 14.2 19.2 10.4 11.0 81.0- 5.3 2.3---- 3.5------------
1987-06-22 17.0 22.0 10.2 14.2 82.5- 4.7 5.3---- 0.0------------
1987-06-21 19.3 23.5 10.0 8.3 75.0- 1.0 3.7---- 0.0------------
1987-06-20 15.7 22.4 6.8 3.7 75.8- 1.3 0.0---- 0.0------------
1987-06-19 12.5 16.7 7.6 6.6 80.0- 3.3 4.3---- 0.0------------
1987-06-18 10.7 14.5 6.0 4.9 82.5- 3.7 6.3---- 0.0------------
1987-06-17 12.6 14.5 9.7 8.0 72.0- 5.3 7.3---- 0.7------------
1987-06-16 12.9 17.2 9.9 8.0 91.5- 3.7 6.7---- 0.0------------
409.7 ms

 

Źródłem pochodzenia danych jest Instytut Meteorologii i Gospodarki Wodnej – Państwowy Instytut Badawczy. Dane Instytutu Meteorologii i Gospodarki Wodnej – Państwowego Instytutu Badawczego zostały przetworzone.

Dane źródłowe można odnaleźć na stronie https://dane.imgw.pl